Evgenia — 9HA2618 — position and weather

sailwx.info

Track history (hours):
 
Tides and Currents Weather Stations Pressure Air Temp Water Temp Dewpoint Dewpoint Depression Visibility Wind Speed Wind Dir Waves Ship Positions

Evgenia

Last reported at 2018-Jun-15 07:07 UTC. Time now 2018-Jun-25 12:00 UTC.
Position N 37°10' E 004°26'.
Warning: this ship's position is 10 days out of date.

Length 292 m; draft 16.8 m.

Type: Cargo ship. MMSI: 215039000.

Date/timePositionNaut miles runAvg speedWind from/ knotsBaromVisibWave heightAir tempDewpointWater temp
2018-Jun-15 07:07N 37°10' E 004°26'111.9
2018-Jun-15 07:00N 37°09' E 004°24'11011.7
2018-Jun-14 21:36N 36°54' E 002°07'112.8
2018-Jun-14 21:30N 36°54' E 002°06'1012.6
2018-Jun-14 20:42N 36°52' E 001°53'312.7
2018-Jun-14 20:29N 36°52' E 001°50'1612.7
2018-Jun-14 19:11N 36°49' E 001°30'312.6
2018-Jun-14 18:59N 36°49' E 001°27'1012.6
2018-Jun-14 18:14N 36°47' E 001°15'312.6
2018-Jun-14 17:59N 36°47' E 001°11'612.6
2018-Jun-14 17:30N 36°46' E 001°03'1012.4
2018-Jun-14 16:41N 36°45' E 000°51'512.2
2018-Jun-14 16:15N 36°44' E 000°44'312.1
2018-Jun-14 16:00N 36°43' E 000°41'1312.0
2018-Jun-14 14:53N 36°41' E 000°24'512.1
2018-Jun-14 14:30N 36°40' E 000°19'612.0
2018-Jun-14 14:00N 36°40' E 000°11'712.0
2018-Jun-14 13:25N 36°39' E 000°03'612.1
2018-Jun-14 12:58N 36°38' W 000°04'611.7
2018-Jun-14 12:29N 36°37' W 000°11'811.5
2018-Jun-14 11:48N 36°36' W 000°21'311.5
2018-Jun-14 11:30N 36°35' W 000°25'811.4
2018-Jun-14 10:50N 36°34' W 000°34'22812.5
2018-Jun-13 16:39N 35°59' W 005°14'1 4.7
2018-Jun-13 16:31N 35°59' W 005°14'2 3.9
2018-Jun-13 16:01N 35°58' W 005°16'2 4.5
2018-Jun-13 15:30N 35°58' W 005°19'4 7.3
2018-Jun-13 15:00N 35°58' W 005°23'612.4
2018-Jun-13 14:30N 35°56' W 005°30'2513.5
2018-Jun-13 12:41N 35°54' W 006°01'212.8
2018-Jun-13 12:30N 35°54' W 006°03'  
2018-Jun-10 10:53N 39°16' W 023°50'1911.5
2018-Jun-10 09:16N 39°22' W 024°13'311.7
2018-Jun-10 08:59N 39°23' W 024°17'611.8
2018-Jun-10 08:30N 39°24' W 024°24'811.8
2018-Jun-10 07:51N 39°26' W 024°33'412.0
2018-Jun-10 07:30N 39°28' W 024°39'612.0
2018-Jun-10 07:00N 39°29' W 024°46'611.8
2018-Jun-10 06:30N 39°31' W 024°53'611.8
2018-Jun-10 06:00N 39°33' W 025°00'611.6
2018-Jun-10 05:30N 39°34' W 025°08'611.6
2018-Jun-10 05:00N 39°36' W 025°15'811.6
2018-Jun-10 04:20N 39°38' W 025°24'911.7
2018-Jun-10 03:36N 39°41' W 025°35'111.3
2018-Jun-10 03:29N 39°41' W 025°37'711.6
2018-Jun-10 02:55N 39°43' W 025°45'511.7
2018-Jun-10 02:30N 39°44' W 025°51'611.8
2018-Jun-10 01:57N 39°46' W 025°59'711.8
2018-Jun-10 01:20N 39°48' W 026°08'412.0
2018-Jun-10 00:58N 39°49' W 026°14'612.1
2018-Jun-10 00:30N 39°51' W 026°21'611.9
2018-Jun-10 00:00N 39°53' W 026°28'611.9
2018-Jun-09 23:30N 39°54' W 026°36'612.0
2018-Jun-09 23:00N 39°56' W 026°43'612.0
2018-Jun-09 22:30N 39°58' W 026°51'712.3
2018-Jun-09 21:58N 39°60' W 026°59'612.1
2018-Jun-09 21:30N 40°01' W 027°06'612.1
2018-Jun-09 20:59N 40°03' W 027°14'611.9
2018-Jun-09 20:30N 40°05' W 027°21'611.8
2018-Jun-09 20:00N 40°07' W 027°28'611.7
2018-Jun-09 19:30N 40°08' W 027°36'1611.7
2018-Jun-09 18:07N 40°13' W 027°56'911.8
2018-Jun-09 17:19N 40°15' W 028°08'511.5
2018-Jun-09 16:53N 40°17' W 028°14'2711.8
2018-Jun-09 14:38N 40°24' W 028°48'111.8
2018-Jun-09 14:30N 40°25' W 028°50'611.9
2018-Jun-09 14:00N 40°27' W 028°57'611.7
2018-Jun-09 13:28N 40°28' W 029°05'511.4
2018-Jun-09 13:00N 40°30' W 029°12'611.3
2018-Jun-09 12:30N 40°31' W 029°19'611.5
2018-Jun-09 12:00N 40°33' W 029°26'611.6
2018-Jun-09 11:29N 40°35' W 029°34'511.5
2018-Jun-09 11:00N 40°36' W 029°41'611.7
2018-Jun-09 10:30N 40°38' W 029°48'611.7
2018-Jun-09 10:01N 40°40' W 029°55'612.3
2018-Jun-09 09:30N 40°41' W 030°03'813.9
2018-Jun-09 08:54N 40°44' W 030°14'614.1
2018-Jun-09 08:30N 40°46' W 030°21'713.2
2018-Jun-09 08:00N 40°47' W 030°29'712.4
2018-Jun-09 07:26N 40°49' W 030°38'512.2
2018-Jun-09 06:59N 40°51' W 030°45'612.1
2018-Jun-09 06:30N 40°53' W 030°52'612.2
2018-Jun-09 06:01N 40°54' W 031°00'612.1
2018-Jun-09 05:30N 40°56' W 031°08'612.0
2018-Jun-09 04:59N 40°58' W 031°16'612.1
2018-Jun-09 04:30N 40°60' W 031°23'612.0
2018-Jun-09 04:00N 41°01' W 031°31'611.6
2018-Jun-09 03:30N 41°03' W 031°38'611.4
2018-Jun-09 03:00N 41°05' W 031°45'611.3
2018-Jun-09 02:30N 41°06' W 031°53'611.6
2018-Jun-09 01:57N 41°08' W 032°01'511.7
2018-Jun-09 01:30N 41°09' W 032°07'611.9
2018-Jun-09 01:00N 41°11' W 032°15'712.1
2018-Jun-09 00:26N 41°13' W 032°24'612.1
2018-Jun-08 23:58N 41°15' W 032°31'512.0
2018-Jun-08 23:30N 41°16' W 032°38'612.1
2018-Jun-08 23:00N 41°18' W 032°46'611.8
2018-Jun-08 22:31N 41°20' W 032°53'611.9
2018-Jun-08 22:00N 41°21' W 033°01'611.9
2018-Jun-08 21:28N 41°23' W 033°09'612.1
2018-Jun-08 21:01N 41°25' W 033°16'612.2
2018-Jun-08 20:30N 41°27' W 033°24'1612.2
2018-Jun-08 19:13N 41°31' W 033°44'212.0
2018-Jun-08 19:00N 41°32' W 033°47'912.2
2018-Jun-08 18:16N 41°35' W 033°58'412.4
2018-Jun-08 17:57N 41°36' W 034°03'612.4
2018-Jun-08 17:30N 41°37' W 034°11'712.5
2018-Jun-08 16:59N 41°39' W 034°19'612.4
2018-Jun-08 16:30N 41°41' W 034°27'1012.9
2018-Jun-08 15:43N 41°44' W 034°40'312.8
2018-Jun-08 15:30N 41°44' W 034°43'1312.4
2018-Jun-08 14:28N 41°48' W 034°60'1112.0
2018-Jun-08 13:32N 41°51' W 035°14'111.6
2018-Jun-08 13:29N 41°51' W 035°15'711.9
2018-Jun-08 12:56N 41°53' W 035°23'911.9
2018-Jun-08 12:12N 41°56' W 035°35'511.9
2018-Jun-08 11:45N 41°57' W 035°41'  
Track history (hours):
 
Tides and Currents Weather Stations Pressure Air Temp Water Temp Dewpoint Dewpoint Depression Visibility Wind Speed Wind Dir Waves Ship Positions

Evgenia

Last reported at 2018-Jun-15 07:07 UTC. Time now 2018-Jun-25 12:00 UTC.
Position N 37°10' E 004°26'.
Warning: this ship's position is 10 days out of date.

Length 292 m; draft 16.8 m.

Type: Cargo ship. MMSI: 215039000.

Date/timePositionNaut miles runAvg speedWind from/ knotsBaromVisibWave heightAir tempDewpointWater temp
2018-Jun-15 07:07N 37°10' E 004°26'111.9
2018-Jun-15 07:00N 37°09' E 004°24'11011.7
2018-Jun-14 21:36N 36°54' E 002°07'112.8
2018-Jun-14 21:30N 36°54' E 002°06'1012.6
2018-Jun-14 20:42N 36°52' E 001°53'312.7
2018-Jun-14 20:29N 36°52' E 001°50'1612.7
2018-Jun-14 19:11N 36°49' E 001°30'312.6
2018-Jun-14 18:59N 36°49' E 001°27'1012.6
2018-Jun-14 18:14N 36°47' E 001°15'312.6
2018-Jun-14 17:59N 36°47' E 001°11'612.6
2018-Jun-14 17:30N 36°46' E 001°03'1012.4
2018-Jun-14 16:41N 36°45' E 000°51'512.2
2018-Jun-14 16:15N 36°44' E 000°44'312.1
2018-Jun-14 16:00N 36°43' E 000°41'1312.0
2018-Jun-14 14:53N 36°41' E 000°24'512.1
2018-Jun-14 14:30N 36°40' E 000°19'612.0
2018-Jun-14 14:00N 36°40' E 000°11'712.0
2018-Jun-14 13:25N 36°39' E 000°03'612.1
2018-Jun-14 12:58N 36°38' W 000°04'611.7
2018-Jun-14 12:29N 36°37' W 000°11'811.5
2018-Jun-14 11:48N 36°36' W 000°21'311.5
2018-Jun-14 11:30N 36°35' W 000°25'811.4
2018-Jun-14 10:50N 36°34' W 000°34'22812.5
2018-Jun-13 16:39N 35°59' W 005°14'1 4.7
2018-Jun-13 16:31N 35°59' W 005°14'2 3.9
2018-Jun-13 16:01N 35°58' W 005°16'2 4.5
2018-Jun-13 15:30N 35°58' W 005°19'4 7.3
2018-Jun-13 15:00N 35°58' W 005°23'612.4
2018-Jun-13 14:30N 35°56' W 005°30'2513.5
2018-Jun-13 12:41N 35°54' W 006°01'212.8
2018-Jun-13 12:30N 35°54' W 006°03'  
2018-Jun-10 10:53N 39°16' W 023°50'1911.5
2018-Jun-10 09:16N 39°22' W 024°13'311.7
2018-Jun-10 08:59N 39°23' W 024°17'611.8
2018-Jun-10 08:30N 39°24' W 024°24'811.8
2018-Jun-10 07:51N 39°26' W 024°33'412.0
2018-Jun-10 07:30N 39°28' W 024°39'612.0
2018-Jun-10 07:00N 39°29' W 024°46'611.8
2018-Jun-10 06:30N 39°31' W 024°53'611.8
2018-Jun-10 06:00N 39°33' W 025°00'611.6
2018-Jun-10 05:30N 39°34' W 025°08'611.6
2018-Jun-10 05:00N 39°36' W 025°15'811.6
2018-Jun-10 04:20N 39°38' W 025°24'911.7
2018-Jun-10 03:36N 39°41' W 025°35'111.3
2018-Jun-10 03:29N 39°41' W 025°37'711.6
2018-Jun-10 02:55N 39°43' W 025°45'511.7
2018-Jun-10 02:30N 39°44' W 025°51'611.8
2018-Jun-10 01:57N 39°46' W 025°59'711.8
2018-Jun-10 01:20N 39°48' W 026°08'412.0
2018-Jun-10 00:58N 39°49' W 026°14'612.1
2018-Jun-10 00:30N 39°51' W 026°21'611.9
2018-Jun-10 00:00N 39°53' W 026°28'611.9
2018-Jun-09 23:30N 39°54' W 026°36'612.0
2018-Jun-09 23:00N 39°56' W 026°43'612.0
2018-Jun-09 22:30N 39°58' W 026°51'712.3
2018-Jun-09 21:58N 39°60' W 026°59'612.1
2018-Jun-09 21:30N 40°01' W 027°06'612.1
2018-Jun-09 20:59N 40°03' W 027°14'611.9
2018-Jun-09 20:30N 40°05' W 027°21'611.8
2018-Jun-09 20:00N 40°07' W 027°28'611.7
2018-Jun-09 19:30N 40°08' W 027°36'1611.7
2018-Jun-09 18:07N 40°13' W 027°56'911.8
2018-Jun-09 17:19N 40°15' W 028°08'511.5
2018-Jun-09 16:53N 40°17' W 028°14'2711.8
2018-Jun-09 14:38N 40°24' W 028°48'111.8
2018-Jun-09 14:30N 40°25' W 028°50'611.9
2018-Jun-09 14:00N 40°27' W 028°57'611.7
2018-Jun-09 13:28N 40°28' W 029°05'511.4
2018-Jun-09 13:00N 40°30' W 029°12'611.3
2018-Jun-09 12:30N 40°31' W 029°19'611.5
2018-Jun-09 12:00N 40°33' W 029°26'611.6
2018-Jun-09 11:29N 40°35' W 029°34'511.5
2018-Jun-09 11:00N 40°36' W 029°41'611.7
2018-Jun-09 10:30N 40°38' W 029°48'611.7
2018-Jun-09 10:01N 40°40' W 029°55'612.3
2018-Jun-09 09:30N 40°41' W 030°03'813.9
2018-Jun-09 08:54N 40°44' W 030°14'614.1
2018-Jun-09 08:30N 40°46' W 030°21'713.2
2018-Jun-09 08:00N 40°47' W 030°29'712.4
2018-Jun-09 07:26N 40°49' W 030°38'512.2
2018-Jun-09 06:59N 40°51' W 030°45'612.1
2018-Jun-09 06:30N 40°53' W 030°52'612.2
2018-Jun-09 06:01N 40°54' W 031°00'612.1
2018-Jun-09 05:30N 40°56' W 031°08'612.0
2018-Jun-09 04:59N 40°58' W 031°16'612.1
2018-Jun-09 04:30N 40°60' W 031°23'612.0
2018-Jun-09 04:00N 41°01' W 031°31'611.6
2018-Jun-09 03:30N 41°03' W 031°38'611.4
2018-Jun-09 03:00N 41°05' W 031°45'611.3
2018-Jun-09 02:30N 41°06' W 031°53'611.6
2018-Jun-09 01:57N 41°08' W 032°01'511.7
2018-Jun-09 01:30N 41°09' W 032°07'611.9
2018-Jun-09 01:00N 41°11' W 032°15'712.1
2018-Jun-09 00:26N 41°13' W 032°24'612.1
2018-Jun-08 23:58N 41°15' W 032°31'512.0
2018-Jun-08 23:30N 41°16' W 032°38'612.1
2018-Jun-08 23:00N 41°18' W 032°46'611.8
2018-Jun-08 22:31N 41°20' W 032°53'611.9
2018-Jun-08 22:00N 41°21' W 033°01'611.9
2018-Jun-08 21:28N 41°23' W 033°09'612.1
2018-Jun-08 21:01N 41°25' W 033°16'612.2
2018-Jun-08 20:30N 41°27' W 033°24'1612.2
2018-Jun-08 19:13N 41°31' W 033°44'212.0
2018-Jun-08 19:00N 41°32' W 033°47'912.2
2018-Jun-08 18:16N 41°35' W 033°58'412.4
2018-Jun-08 17:57N 41°36' W 034°03'612.4
2018-Jun-08 17:30N 41°37' W 034°11'712.5
2018-Jun-08 16:59N 41°39' W 034°19'612.4
2018-Jun-08 16:30N 41°41' W 034°27'1012.9
2018-Jun-08 15:43N 41°44' W 034°40'312.8
2018-Jun-08 15:30N 41°44' W 034°43'1312.4
2018-Jun-08 14:28N 41°48' W 034°60'1112.0
2018-Jun-08 13:32N 41°51' W 035°14'111.6
2018-Jun-08 13:29N 41°51' W 035°15'711.9
2018-Jun-08 12:56N 41°53' W 035°23'911.9
2018-Jun-08 12:12N 41°56' W 035°35'511.9
2018-Jun-08 11:45N 41°57' W 035°41'  

Dump ship's entire track history